Bangkok, Thailand

2:54 PM +07 on 四月 23, 2017 (GMT +0700)
Soi Vibhavadi Rangsit 60, Lane 3-3 | | Change Station

高度 13 ft 13.87 °N, 100.58 °E | Updated 15 minutes ago

Partly Cloudy
所により曇
99.5 °F
体感気温 113 °F
0.6
風 変数 風 から 南南東
Gusts 1.9 Mph

今日
高い -- | 低 -- °F
--% 降水確率
昨日
高い -- | 低 -- °F
Precip. -- インチ
気圧 29.74 インチ
視程 6.2 マイル
わずか 3000 ft
体感気温(暑さ) 113 °F
露点温度 76 °F
湿度 46%
降水 0.00 インチ
積雪深 利用不可。
5:59 AM 6:32 PM
二十六夜, 13% visible
METAR VTBD 230730Z 20005KT 140V260 9999 FEW030 37/22 Q1007 NOSIG
気圧 29.74 インチ
視程 6.2 マイル
わずか 3000 ft
体感気温(暑さ) 113 °F
露点温度 76 °F
湿度 46%
降水 0.00 インチ
積雪深 利用不可。
5:59 AM 6:32 PM
二十六夜, 13% visible
METAR VTBD 230730Z 20005KT 140V260 9999 FEW030 37/22 Q1007 NOSIG

Get Severe Weather Alerts

Thanks for signing up!

Be on the lookout for a verification email in your inbox.

You'll start receiving the daily forecast at 8 AM.

×

10-Day Weather Forecast

No radar image for this location.
×

Almanac

天文

Apr. 23, 2017 入り
実時間
常用薄明
航海薄明
天文薄明
可視光の長さ
可照時間
Tomorrow will be .
, % of the Moon is Illuminated

今日の極値

Country Highs Country Lows

Community

WunderBlog® & News

Nearby

空気品質

  空気品質 大気質指数 汚染物質
Not available.

積雪深

Station Depth 高度

地震活動

Distance Mag. Time & Date
Minimum magnitude displayed is 2.5.

沿岸の水温

地名 気温

Stations

最寄りの気象観測所

観測所位置 温度 体感気温(寒さ) 露点温度 湿度 Precip. 高度 更新日時 タイプする